Time;durP1;ratioP1;P1;durP2;ratioP2;P2;SDS_P1;SDS_P2;PMS_P1;PMS_P2;Temp;Humidity;BMP_temperature;BMP_pressure;BME280_temperature;BME280_humidity;BME280_pressure;Samples;Min_cycle;Max_cycle;Signal;HPM_P1;HPM_P2
2022/01/13 00:02:04;;;;;;;;;42.00;29.00;;;;;5.09;81.51;103439.75;5075382;27;45667;-77
2022/01/13 00:04:30;;;;;;;;;35.50;27.25;;;;;5.06;80.94;103426.50;5085599;27;45520;-75
2022/01/13 00:06:55;;;;;;;;;31.33;28.33;;;;;4.96;81.11;103403.09;5093476;27;46056;-75
2022/01/13 00:09:21;;;;;;;;;28.25;26.00;;;;;5.15;80.77;103433.28;5094323;27;45585;-76
2022/01/13 00:11:48;;;;;;;;;33.00;25.33;;;;;5.09;80.71;103416.25;5077936;27;45477;-76
2022/01/13 00:16:45;;;;;;;;;33.25;27.50;;;;;5.15;81.31;103433.28;5123817;27;45404;-77
2022/01/13 00:21:51;;;;;;;;;39.50;25.75;;;;;5.11;81.00;103430.31;5137936;27;46035;-75
2022/01/13 00:24:16;;;;;;;;;29.00;24.75;;;;;4.92;80.82;103408.88;5138122;27;45314;-76
2022/01/13 00:26:42;;;;;;;;;27.25;21.00;;;;;5.11;80.95;103425.09;5138185;27;45764;-76
2022/01/13 00:29:09;;;;;;;;;26.33;18.67;;;;;5.17;80.60;103437.72;5137852;27;45470;-77
2022/01/13 00:31:39;;;;;;;;;22.50;20.75;;;;;5.15;80.93;103438.50;5137734;27;45596;-75
2022/01/13 00:34:06;;;;;;;;;22.25;21.00;;;;;5.13;80.49;103432.28;5137263;27;45442;-76
2022/01/13 00:36:38;;;;;;;;;30.25;27.25;;;;;5.02;80.54;103414.88;5138046;27;45178;-77
2022/01/13 00:39:08;;;;;;;;;25.50;22.00;;;;;4.84;80.68;103375.31;5137530;27;46240;-77
2022/01/13 00:41:34;;;;;;;;;25.00;25.00;;;;;5.15;81.05;103428.06;5137721;27;45276;-77
2022/01/13 00:44:02;;;;;;;;;28.00;24.33;;;;;4.92;80.86;103388.91;5129487;27;46291;-76
2022/01/13 00:46:39;;;;;;;;;20.50;19.75;;;;;5.04;81.21;103407.19;5131600;27;45496;-76
2022/01/13 00:49:05;;;;;;;;;24.25;19.50;;;;;4.96;81.14;103395.28;5137459;27;45701;-74
2022/01/13 00:51:31;;;;;;;;;22.00;20.00;;;;;5.11;80.54;103428.63;5136712;27;46298;-75
2022/01/13 00:54:02;;;;;;;;;23.75;20.00;;;;;4.97;80.74;103416.28;5140829;27;45467;-77
2022/01/13 00:56:28;;;;;;;;;17.00;15.00;;;;;4.86;80.71;103398.91;5141586;27;45468;-75
2022/01/13 00:58:53;;;;;;;;;21.50;17.75;;;;;5.07;80.71;103431.81;5141039;27;45487;-75
2022/01/13 01:01:19;;;;;;;;;25.25;20.25;;;;;5.07;80.47;103430.91;5141099;27;45479;-74
2022/01/13 01:03:44;;;;;;;;;20.25;17.25;;;;;5.07;80.67;103426.59;5141118;27;45393;-75
2022/01/13 01:06:10;;;;;;;;;25.25;21.25;;;;;5.06;80.77;103429.09;5141127;27;45189;-74
2022/01/13 01:08:35;;;;;;;;;26.00;19.75;;;;;5.02;81.01;103408.75;5141342;27;45215;-75
2022/01/13 01:11:03;;;;;;;;;22.50;18.50;;;;;5.10;80.63;103421.59;5140306;27;46423;-75
2022/01/13 01:13:32;;;;;;;;;29.00;19.75;;;;;5.10;81.00;103423.28;5141281;27;45342;-76
2022/01/13 01:16:02;;;;;;;;;26.00;18.67;;;;;5.00;81.06;103410.34;5139387;27;45471;-75
2022/01/13 01:31:51;;;;;;;;;21.75;18.00;;;;;4.93;81.22;103414.22;5142030;27;45583;-79
2022/01/13 01:37:06;;;;;;;;;24.50;19.75;;;;;4.83;81.44;103393.44;5142084;27;45226;-79
2022/01/13 01:39:31;;;;;;;;;22.25;17.50;;;;;4.91;81.54;103410.59;5142280;27;45458;-80
2022/01/13 01:41:57;;;;;;;;;27.75;25.50;;;;;4.82;81.09;103397.75;5142099;27;46425;-79
2022/01/13 01:44:30;;;;;;;;;22.00;19.50;;;;;4.97;81.54;103429.34;5141055;27;45355;-77
2022/01/13 01:46:58;;;;;;;;;14.75;11.00;;;;;4.98;81.60;103436.38;5141952;27;45332;-79
2022/01/13 01:49:25;;;;;;;;;16.00;15.00;;;;;4.95;81.33;103428.31;5142152;27;45434;-77
2022/01/13 01:51:58;;;;;;;;;19.50;13.00;;;;;4.94;81.30;103429.13;5141579;27;45540;-78
2022/01/13 01:54:24;;;;;;;;;19.75;19.75;;;;;4.90;81.54;103431.38;5141820;27;45462;-78
2022/01/13 01:56:50;;;;;;;;;18.50;15.75;;;;;4.90;81.61;103432.28;5141887;27;45257;-78
2022/01/13 01:59:20;;;;;;;;;22.75;18.50;;;;;4.93;81.22;103436.81;5142186;27;45213;-81
2022/01/13 02:01:47;;;;;;;;;16.75;15.50;;;;;4.80;81.36;103414.13;5141238;27;45601;-78
2022/01/13 02:04:14;;;;;;;;;16.00;15.00;;;;;4.82;81.42;103422.97;5140236;27;45356;-79
2022/01/13 02:06:40;;;;;;;;;19.00;16.25;;;;;4.83;81.79;103436.13;5141618;27;45269;-78
2022/01/13 02:09:08;;;;;;;;;22.00;18.50;;;;;4.79;81.50;103425.38;5142096;27;45443;-79
2022/01/13 02:11:41;;;;;;;;;14.50;12.50;;;;;4.75;81.24;103425.97;5140146;27;46624;-78
2022/01/13 02:17:14;;;;;;;;;23.00;15.75;;;;;4.86;81.36;103452.06;5058028;28;45442;-78
2022/01/13 02:19:46;;;;;;;;;23.25;16.50;;;;;4.84;81.21;103456.28;5057493;28;45295;-79
2022/01/13 02:22:12;;;;;;;;;18.25;16.00;;;;;4.80;80.99;103454.22;5057116;28;45763;-77
2022/01/13 02:24:38;;;;;;;;;16.50;14.25;;;;;4.32;81.00;103380.06;5056909;28;45339;-77
2022/01/13 02:27:06;;;;;;;;;12.75;11.75;;;;;4.71;80.92;103452.63;5057026;28;45257;-79
2022/01/13 02:29:31;;;;;;;;;16.50;16.50;;;;;4.61;81.12;103429.22;5057002;28;45355;-78
2022/01/13 02:31:57;;;;;;;;;17.50;15.75;;;;;4.45;80.77;103406.28;5056983;28;46461;-78
2022/01/13 02:34:22;;;;;;;;;14.75;14.25;;;;;4.67;80.80;103445.38;5056866;28;45405;-79
2022/01/13 02:36:54;;;;;;;;;17.75;12.50;;;;;4.62;80.61;103450.22;5057124;28;45323;-78
2022/01/13 02:39:27;;;;;;;;;19.50;15.25;;;;;4.53;80.46;103423.44;5057137;28;45394;-77
2022/01/13 02:41:52;;;;;;;;;14.67;13.00;;;;;4.54;80.44;103423.53;5056868;28;45291;-79
2022/01/13 02:44:21;;;;;;;;;20.00;17.00;;;;;4.50;80.28;103429.34;5066304;28;45465;-78
2022/01/13 02:49:21;;;;;;;;;16.00;12.75;;;;;4.46;80.12;103416.84;5077232;28;45307;-78
2022/01/13 02:51:50;;;;;;;;;12.50;12.50;;;;;4.55;80.73;103443.63;5084325;27;46277;-78
2022/01/13 02:54:16;;;;;;;;;15.50;13.25;;;;;4.42;80.50;103413.91;5140988;27;45233;-78
2022/01/13 02:56:43;;;;;;;;;20.50;12.00;;;;;4.60;80.41;103437.84;5140968;27;45373;-77
2022/01/13 02:59:10;;;;;;;;;16.00;15.75;;;;;4.61;80.45;103432.75;5140969;27;45448;-76
2022/01/13 03:01:36;;;;;;;;;13.50;12.25;;;;;4.40;80.45;103389.38;5140445;27;45447;-78
2022/01/13 03:04:06;;;;;;;;;10.75;9.75;;;;;4.58;80.22;103430.81;5140659;27;45407;-78
2022/01/13 03:06:35;;;;;;;;;18.00;14.00;;;;;4.33;80.08;103389.72;5140727;27;45317;-78
2022/01/13 03:09:04;;;;;;;;;15.50;14.25;;;;;4.49;80.05;103427.53;5140964;27;45365;-78
2022/01/13 03:11:34;;;;;;;;;16.25;15.75;;;;;4.29;80.23;103399.94;5137820;27;45440;-78
2022/01/13 03:14:00;;;;;;;;;11.75;8.25;;;;;4.40;80.53;103419.00;5119751;27;45211;-78
2022/01/13 03:16:25;;;;;;;;;13.00;12.50;;;;;4.28;80.86;103398.13;5119753;27;45308;-77
2022/01/13 03:18:51;;;;;;;;;16.75;15.50;;;;;4.48;80.53;103428.31;5136062;27;45301;-78
2022/01/13 03:21:17;;;;;;;;;13.00;11.75;;;;;4.24;80.12;103393.44;5122275;27;45689;-78
2022/01/13 03:23:43;;;;;;;;;19.00;14.33;;;;;4.44;80.09;103420.13;5139573;27;45366;-78
2022/01/13 03:26:08;;;;;;;;;15.75;14.50;;;;;4.48;80.04;103432.63;5140387;27;45241;-78
2022/01/13 03:28:51;;;;;;;;;15.25;15.25;;;;;4.47;80.20;103426.50;5140092;27;45555;-79
2022/01/13 03:31:18;;;;;;;;;14.00;14.00;;;;;4.47;79.57;103434.34;5140232;27;46352;-79
2022/01/13 03:33:44;;;;;;;;;12.75;12.00;;;;;4.32;80.00;103414.91;5140315;27;45440;-78
2022/01/13 03:36:10;;;;;;;;;14.00;12.00;;;;;4.02;79.78;103370.84;5140090;27;46003;-79
2022/01/13 03:38:35;;;;;;;;;11.00;11.00;;;;;4.38;79.91;103438.88;5140301;27;45380;-79
2022/01/13 03:41:02;;;;;;;;;12.00;11.33;;;;;4.40;79.70;103441.59;5139955;27;45357;-79
2022/01/13 03:43:27;;;;;;;;;12.33;12.33;;;;;4.34;79.87;103421.13;5121434;27;45280;-79
2022/01/13 03:45:53;;;;;;;;;10.50;10.50;;;;;4.38;79.49;103427.53;5138987;27;45314;-79
2022/01/13 03:48:18;;;;;;;;;13.50;12.25;;;;;4.34;79.55;103417.63;5140316;27;45214;-78
2022/01/13 03:50:44;;;;;;;;;16.25;14.50;;;;;4.22;80.05;103399.34;5139076;27;45318;-79
2022/01/13 03:53:35;;;;;;;;;16.00;12.50;;;;;4.32;79.64;103424.44;5140111;27;45256;-79
2022/01/13 03:56:28;;;;;;;;;12.50;10.25;;;;;4.37;79.90;103434.41;5138804;27;45306;-74
2022/01/13 03:59:15;;;;;;;;;15.75;10.25;;;;;4.35;79.84;103440.31;5139899;27;45497;-78
2022/01/13 04:02:02;;;;;;;;;21.00;14.50;;;;;4.34;79.87;103439.41;5139434;27;46250;-78
2022/01/13 04:04:35;;;;;;;;;15.00;10.75;;;;;4.14;79.43;103403.06;5139482;27;45431;-79
2022/01/13 04:07:19;;;;;;;;;12.00;12.00;;;;;4.06;79.30;103393.75;5140011;27;45275;-80
2022/01/13 04:09:45;;;;;;;;;15.67;15.67;;;;;4.27;80.17;103438.03;5121232;27;45329;-77
2022/01/13 04:12:12;;;;;;;;;15.00;13.00;;;;;4.08;80.26;103411.31;5139049;27;45282;-79
2022/01/13 04:14:46;;;;;;;;;10.33;6.33;;;;;4.26;80.18;103441.41;5139187;27;45316;-78
2022/01/13 04:17:14;;;;;;;;;16.67;13.67;;;;;4.25;80.23;103437.00;5139758;27;45269;-79
2022/01/13 04:19:40;;;;;;;;;18.33;13.67;;;;;4.00;80.08;103396.78;5139587;27;45241;-79
2022/01/13 04:22:06;;;;;;;;;15.67;12.33;;;;;4.05;80.05;103407.59;5139472;27;45447;-79
2022/01/13 04:24:32;;;;;;;;;14.33;12.33;;;;;4.21;79.52;103429.75;5139178;27;45319;-77
2022/01/13 04:26:58;;;;;;;;;17.33;15.00;;;;;3.95;80.25;103382.50;5138783;27;45535;-79
2022/01/13 04:29:33;;;;;;;;;19.00;12.00;;;;;4.14;79.97;103408.28;5139761;27;45324;-79
2022/01/13 04:31:59;;;;;;;;;16.33;15.33;;;;;4.10;80.15;103395.81;5139322;27;46307;-79
2022/01/13 04:34:25;;;;;;;;;18.67;12.67;;;;;4.14;80.72;103409.19;5139448;27;45328;-79
2022/01/13 04:36:51;;;;;;;;;12.33;12.33;;;;;4.07;80.26;103398.16;5139295;27;45257;-79
2022/01/13 04:39:17;;;;;;;;;20.00;17.33;;;;;4.15;80.50;103415.31;5139449;27;45521;-79
2022/01/13 04:41:46;;;;;;;;;15.00;14.33;;;;;4.13;80.46;103411.69;5122148;27;46281;-79
2022/01/13 04:44:14;;;;;;;;;16.67;13.00;;;;;4.10;79.97;103407.16;5118345;27;45367;-77
2022/01/13 04:46:40;;;;;;;;;11.33;11.33;;;;;4.09;80.50;103425.28;5118723;27;45314;-77
2022/01/13 04:49:07;;;;;;;;;12.33;12.33;;;;;3.84;80.04;103375.56;5118793;27;45188;-78
2022/01/13 04:51:34;;;;;;;;;10.33;9.00;;;;;4.01;80.45;103411.66;5118271;27;45425;-77
2022/01/13 04:53:59;;;;;;;;;12.33;11.00;;;;;4.08;80.52;103423.47;5118189;27;45217;-77
2022/01/13 04:56:44;;;;;;;;;11.33;11.33;;;;;4.02;80.56;103409.97;5118299;27;45445;-77
2022/01/13 04:59:11;;;;;;;;;14.33;11.33;;;;;3.95;80.90;103401.66;5118521;27;45198;-77
2022/01/13 05:01:37;;;;;;;;;6.33;6.33;;;;;4.03;81.17;103415.28;5099276;27;47327;-76
2022/01/13 05:04:04;;;;;;;;;15.00;14.33;;;;;4.03;80.69;103424.81;5118156;27;45345;-77
2022/01/13 05:06:30;;;;;;;;;12.00;11.00;;;;;4.00;80.78;103420.25;5118245;27;45377;-77
2022/01/13 05:08:55;;;;;;;;;14.33;13.00;;;;;4.08;81.18;103424.38;5118386;27;45243;-80
2022/01/13 05:11:22;;;;;;;;;20.33;16.00;;;;;3.99;81.19;103413.22;5117654;27;45473;-74
2022/01/13 05:13:48;;;;;;;;;12.00;11.33;;;;;4.04;80.56;103414.50;5118194;27;45294;-80
2022/01/13 05:16:28;;;;;;;;;6.33;6.33;;;;;4.03;80.41;103419.59;5121226;27;45260;-79
2022/01/13 05:24:04;;;;;;;;;15.00;13.00;;;;;4.05;80.45;103398.06;5138118;27;46998;-76
2022/01/13 05:26:29;;;;;;;;;15.67;14.33;;;;;4.18;80.38;103432.09;5139022;27;45422;-79
2022/01/13 05:28:55;;;;;;;;;14.33;10.67;;;;;4.13;80.25;103416.91;5138812;27;45344;-79
2022/01/13 05:31:20;;;;;;;;;15.00;13.00;;;;;4.04;79.83;103416.19;5138499;27;45428;-81
2022/01/13 05:33:46;;;;;;;;;13.00;11.75;;;;;3.97;80.26;103415.72;5138003;27;45288;-80
2022/01/13 05:36:13;;;;;;;;;11.00;10.33;;;;;4.07;79.94;103437.28;5138665;27;45185;-81
2022/01/13 05:38:42;;;;;;;;;11.33;11.33;;;;;4.08;80.17;103418.25;5138978;27;45423;-80
2022/01/13 05:41:08;;;;;;;;;11.00;11.00;;;;;3.95;80.11;103412.09;5141989;27;45346;-81
2022/01/13 05:43:33;;;;;;;;;12.00;11.00;;;;;4.03;80.10;103417.00;5142220;27;45264;-79
2022/01/13 05:45:59;;;;;;;;;13.00;13.00;;;;;3.89;80.39;103387.22;5142365;27;45277;-80
2022/01/13 05:48:24;;;;;;;;;13.00;12.00;;;;;4.06;80.20;103407.69;5142246;27;45349;-79
2022/01/13 05:50:49;;;;;;;;;10.67;10.67;;;;;4.11;80.16;103413.28;5141866;27;45611;-77
2022/01/13 05:53:15;;;;;;;;;11.33;9.67;;;;;4.11;80.41;103423.72;5141029;27;45520;-78
2022/01/13 05:55:40;;;;;;;;;10.33;10.33;;;;;4.04;80.19;103403.16;5135629;27;45412;-83
2022/01/13 05:58:06;;;;;;;;;14.33;12.00;;;;;4.07;80.40;103408.59;5120245;27;45313;-82
2022/01/13 06:00:31;;;;;;;;;21.33;13.00;;;;;4.15;80.23;103416.22;5120845;27;47286;-81
2022/01/13 06:02:57;;;;;;;;;11.33;11.33;;;;;4.17;79.74;103416.34;5119650;27;46001;-80
2022/01/13 06:05:23;;;;;;;;;12.75;11.25;;;;;4.02;79.64;103391.72;5120842;27;45716;-81
2022/01/13 06:07:48;;;;;;;;;12.67;12.00;;;;;4.15;80.00;103416.22;5120914;27;45237;-79
2022/01/13 06:10:19;;;;;;;;;11.67;11.67;;;;;4.15;79.91;103418.84;5120452;27;46491;-77
2022/01/13 06:12:50;;;;;;;;;11.67;11.67;;;;;3.95;79.79;103390.31;5121380;27;45361;-77
2022/01/13 06:15:18;;;;;;;;;11.33;11.33;;;;;4.11;79.83;103424.63;5120920;27;45387;-77
2022/01/13 06:17:45;;;;;;;;;17.33;15.00;;;;;4.10;79.96;103428.03;5121056;27;45431;-78
2022/01/13 06:20:13;;;;;;;;;14.33;11.33;;;;;4.04;80.31;103419.72;5120672;27;45570;-77
2022/01/13 06:22:40;;;;;;;;;15.50;13.00;;;;;4.05;80.16;103420.63;5120573;27;45434;-82
2022/01/13 06:25:08;;;;;;;;;13.33;11.00;;;;;3.87;79.91;103394.94;5102039;27;45408;-83
2022/01/13 06:27:34;;;;;;;;;8.00;5.00;;;;;4.06;80.90;103427.66;5120636;27;45469;-82
2022/01/13 06:29:59;;;;;;;;;8.67;5.67;;;;;3.82;80.16;103382.38;5120425;27;46796;-83
2022/01/13 06:32:25;;;;;;;;;14.00;12.00;;;;;4.04;80.26;103419.72;5122645;27;45287;-78
2022/01/13 06:34:51;;;;;;;;;12.67;9.33;;;;;3.79;81.01;103384.72;5130746;27;45379;-81
2022/01/13 06:37:18;;;;;;;;;15.33;12.67;;;;;3.88;80.66;103394.16;5135874;27;45771;-78
2022/01/13 06:39:44;;;;;;;;;12.33;9.67;;;;;4.03;80.58;103423.13;5135984;27;46379;-78
2022/01/13 06:42:09;;;;;;;;;13.67;10.00;;;;;4.10;81.07;103430.63;5140104;27;45292;-86
2022/01/13 06:44:35;;;;;;;;;14.33;14.33;;;;;4.13;80.39;103429.94;5142468;27;45192;-80
2022/01/13 06:47:00;;;;;;;;;16.00;13.00;;;;;4.07;80.44;103411.22;5142442;27;45516;-83
2022/01/13 06:49:26;;;;;;;;;12.67;10.67;;;;;4.06;80.09;103412.00;5140746;27;45403;-81
2022/01/13 06:51:51;;;;;;;;;17.33;13.67;;;;;4.00;80.61;103397.72;5141098;27;45362;-82
2022/01/13 06:54:17;;;;;;;;;19.33;16.67;;;;;3.92;80.19;103393.63;5129322;27;45488;-84
2022/01/13 06:56:42;;;;;;;;;13.33;12.67;;;;;3.77;79.91;103373.25;5119241;27;45540;-80
2022/01/13 06:59:12;;;;;;;;;20.67;16.33;;;;;3.84;79.89;103405.16;5120838;27;46513;-78
2022/01/13 07:01:39;;;;;;;;;15.00;12.67;;;;;4.05;80.34;103436.28;5119888;27;45421;-79
2022/01/13 07:04:09;;;;;;;;;12.33;11.00;;;;;4.06;80.28;103419.84;5120008;27;45242;-79
2022/01/13 07:06:34;;;;;;;;;13.67;13.67;;;;;3.84;80.59;103386.91;5120220;27;45342;-77
2022/01/13 07:08:59;;;;;;;;;15.33;12.00;;;;;3.80;80.53;103381.31;5119594;27;46225;-78
2022/01/13 07:11:25;;;;;;;;;16.33;12.33;;;;;3.70;80.27;103374.47;5101023;27;45349;-78
2022/01/13 07:13:50;;;;;;;;;18.33;15.67;;;;;3.90;80.84;103402.09;5120092;27;45496;-79
2022/01/13 07:16:16;;;;;;;;;18.33;18.33;;;;;4.07;80.54;103439.91;5120214;27;45404;-78
2022/01/13 07:18:41;;;;;;;;;20.67;15.33;;;;;3.78;80.70;103388.13;5119152;27;46135;-78
2022/01/13 07:21:09;;;;;;;;;17.00;12.67;;;;;3.92;80.61;103422.31;5119981;27;45225;-79
2022/01/13 07:23:35;;;;;;;;;25.00;16.67;;;;;4.05;80.58;103444.09;5119584;27;45306;-78
2022/01/13 07:26:02;;;;;;;;;23.00;14.33;;;;;4.03;80.54;103435.25;5119545;27;45357;-79
2022/01/13 07:28:29;;;;;;;;;14.67;14.67;;;;;4.01;80.65;103442.97;5119199;27;46242;-80
2022/01/13 07:30:55;;;;;;;;;22.00;16.00;;;;;3.80;80.47;103405.69;5119669;27;45377;-77
2022/01/13 07:33:21;;;;;;;;;21.33;15.67;;;;;4.02;80.83;103441.25;5119551;27;45227;-77
2022/01/13 07:35:47;;;;;;;;;24.67;16.00;;;;;4.04;80.70;103457.94;5119264;27;45227;-77
2022/01/13 07:38:12;;;;;;;;;13.00;13.00;;;;;3.96;80.32;103428.66;5118732;27;45529;-80
2022/01/13 07:40:38;;;;;;;;;16.00;12.00;;;;;3.96;80.24;103429.56;5119161;27;45290;-78
2022/01/13 07:43:03;;;;;;;;;14.33;13.00;;;;;3.98;80.42;103441.00;5119428;27;45261;-80
2022/01/13 07:45:28;;;;;;;;;25.67;16.00;;;;;4.07;80.45;103447.72;5119310;27;45383;-79
2022/01/13 07:47:54;;;;;;;;;16.00;14.67;;;;;3.99;80.18;103421.03;5118838;27;45323;-78
2022/01/13 07:50:19;;;;;;;;;15.33;13.33;;;;;4.03;80.11;103432.66;5118897;27;45318;-79
2022/01/13 07:52:45;;;;;;;;;19.00;15.00;;;;;3.95;79.91;103421.63;5119131;27;45230;-79
2022/01/13 07:55:11;;;;;;;;;13.00;13.00;;;;;3.91;80.06;103409.16;5119174;27;45187;-82
2022/01/13 07:57:37;;;;;;;;;19.00;18.67;;;;;3.96;80.23;103426.03;5119055;27;46631;-78
2022/01/13 08:00:04;;;;;;;;;18.00;18.00;;;;;3.89;80.43;103410.69;5118840;27;45338;-79
2022/01/13 08:02:30;;;;;;;;;17.00;11.67;;;;;4.01;80.02;103429.94;5117618;27;45337;-78
2022/01/13 08:04:55;;;;;;;;;16.33;13.33;;;;;3.90;80.19;103415.13;5118871;27;45318;-79
2022/01/13 08:07:21;;;;;;;;;18.67;14.33;;;;;3.99;80.42;103439.31;5118443;27;45673;-80
2022/01/13 08:09:46;;;;;;;;;22.00;21.00;;;;;3.83;80.19;103392.00;5118605;27;45456;-77
2022/01/13 08:12:11;;;;;;;;;25.67;14.33;;;;;3.97;80.26;103409.59;5119181;27;45240;-78
2022/01/13 08:14:37;;;;;;;;;25.33;18.33;;;;;4.04;80.34;103422.31;5100073;27;45370;-80
2022/01/13 08:17:03;;;;;;;;;21.00;17.33;;;;;3.93;80.55;103403.25;5117298;27;46122;-80
2022/01/13 08:19:48;;;;;;;;;26.67;23.67;;;;;3.83;80.26;103379.88;5118608;27;45285;-79
2022/01/13 08:22:17;;;;;;;;;27.33;19.33;;;;;4.11;79.90;103431.53;5100071;27;45262;-80
2022/01/13 08:24:43;;;;;;;;;19.33;17.33;;;;;4.14;79.82;103437.88;5118632;27;45473;-79
2022/01/13 08:27:09;;;;;;;;;21.67;18.67;;;;;4.13;80.12;103428.25;5116179;27;46200;-83
2022/01/13 08:29:34;;;;;;;;;22.00;18.67;;;;;4.15;80.50;103428.38;5116497;27;45376;-79
2022/01/13 08:32:00;;;;;;;;;21.67;21.67;;;;;4.17;80.30;103426.78;5118762;27;45374;-78
2022/01/13 08:34:25;;;;;;;;;28.67;18.67;;;;;3.99;79.92;103387.16;5136105;27;45536;-77
2022/01/13 08:36:51;;;;;;;;;25.33;16.33;;;;;4.24;79.87;103431.66;5136922;27;46083;-78
2022/01/13 08:39:16;;;;;;;;;15.67;13.33;;;;;4.17;79.79;103413.72;5137245;27;45441;-78
2022/01/13 08:41:42;;;;;;;;;18.00;14.33;;;;;4.29;80.00;103430.34;5138121;27;45239;-76
2022/01/13 08:44:08;;;;;;;;;25.33;20.67;;;;;4.26;79.97;103424.88;5119127;27;45239;-77
2022/01/13 08:46:34;;;;;;;;;24.67;20.00;;;;;4.23;79.80;103414.22;5137997;27;46662;-74
2022/01/13 08:48:59;;;;;;;;;22.00;20.00;;;;;4.22;79.42;103410.69;5138046;27;45512;-76
2022/01/13 08:51:25;;;;;;;;;21.33;18.00;;;;;4.25;79.52;103423.97;5137849;27;45240;-75
2022/01/13 08:53:50;;;;;;;;;17.67;16.00;;;;;4.19;79.79;103407.84;5137846;27;45236;-76
2022/01/13 08:56:16;;;;;;;;;29.33;23.00;;;;;4.07;79.47;103386.03;5137292;27;45584;-76
2022/01/13 08:58:43;;;;;;;;;23.67;19.00;;;;;4.02;79.41;103374.34;5137375;27;45338;-76
2022/01/13 09:01:08;;;;;;;;;26.67;24.00;;;;;4.25;79.44;103413.53;5137721;27;45360;-75
2022/01/13 09:03:35;;;;;;;;;24.33;21.33;;;;;4.30;79.15;103426.94;5138235;27;45383;-75
2022/01/13 09:06:02;;;;;;;;;30.00;23.67;;;;;4.33;79.29;103415.81;5137711;27;45952;-75
2022/01/13 09:08:27;;;;;;;;;30.00;24.67;;;;;4.30;79.08;103424.31;5137659;27;45248;-75
2022/01/13 09:10:52;;;;;;;;;31.00;27.33;;;;;4.28;79.02;103413.78;5137948;27;45556;-74
2022/01/13 09:13:18;;;;;;;;;20.33;19.00;;;;;4.35;79.16;103417.72;5139118;27;45526;-78
2022/01/13 09:15:49;;;;;;;;;35.00;28.67;;;;;4.52;78.80;103452.94;5141108;27;45358;-75
2022/01/13 09:18:18;;;;;;;;;29.67;23.67;;;;;4.49;78.28;103448.41;5141370;27;45266;-75
2022/01/13 09:20:46;;;;;;;;;31.33;23.33;;;;;4.50;78.84;103454.53;5141719;27;45234;-73
2022/01/13 09:23:12;;;;;;;;;27.33;23.00;;;;;4.55;78.53;103461.91;5141465;27;45447;-75
2022/01/13 09:25:37;;;;;;;;;28.33;27.00;;;;;4.50;78.73;103452.81;5135813;27;45622;-74
2022/01/13 09:28:05;;;;;;;;;32.33;24.00;;;;;4.54;78.31;103465.31;5140736;27;45311;-74
2022/01/13 09:30:31;;;;;;;;;25.67;23.00;;;;;4.52;78.44;103458.16;5143161;27;45289;-73
2022/01/13 09:32:56;;;;;;;;;34.00;27.00;;;;;4.50;77.74;103452.81;5140891;27;45518;-73
2022/01/13 09:35:22;;;;;;;;;32.00;29.67;;;;;4.57;77.57;103470.78;5140797;27;45246;-73
2022/01/13 09:37:47;;;;;;;;;28.67;25.00;;;;;4.51;77.95;103457.25;5140995;27;45239;-73
2022/01/13 09:40:13;;;;;;;;;25.67;25.67;;;;;4.63;77.63;103475.53;5140413;27;45235;-73
2022/01/13 09:42:42;;;;;;;;;57.67;50.33;;;;;4.49;77.50;103445.78;5122453;27;45190;-73
2022/01/13 09:45:09;;;;;;;;;19.00;18.67;;;;;4.73;77.34;103471.91;5140593;27;46307;-75
2022/01/13 09:47:37;;;;;;;;;23.00;21.67;;;;;4.61;77.11;103460.56;5140849;27;45392;-74
2022/01/13 09:50:09;;;;;;;;;21.00;18.33;;;;;4.64;77.12;103455.56;5140908;27;45302;-74
2022/01/13 09:52:34;;;;;;;;;37.00;30.33;;;;;4.58;77.09;103438.66;5141242;27;45419;-75
2022/01/13 09:55:00;;;;;;;;;23.33;20.00;;;;;4.66;77.22;103456.59;5140439;27;47118;-74
2022/01/13 09:57:25;;;;;;;;;24.67;23.00;;;;;4.71;77.09;103460.44;5121834;27;45353;-74
2022/01/13 09:59:51;;;;;;;;;25.33;22.33;;;;;4.78;76.32;103473.19;5140951;27;45289;-76
2022/01/13 10:02:16;;;;;;;;;24.67;21.00;;;;;4.69;76.37;103478.63;5140519;27;45559;-77
2022/01/13 10:04:56;;;;;;;;;29.50;25.75;;;;;4.47;76.14;103429.13;5140446;27;45298;-76
2022/01/13 10:07:36;;;;;;;;;42.00;34.00;;;;;4.60;76.79;103456.13;5132354;27;45318;-77
2022/01/13 10:10:06;;;;;;;;;46.33;42.67;;;;;4.77;76.76;103468.75;5140765;27;45409;-76
2022/01/13 10:12:38;;;;;;;;;39.33;33.00;;;;;4.84;76.59;103478.88;5114442;27;45299;-77
2022/01/13 10:18:01;;;;;;;;;21.33;19.33;;;;;4.83;76.40;103477.94;5140179;27;45414;-76
2022/01/13 10:20:27;;;;;;;;;26.00;20.33;;;;;4.90;76.62;103478.41;5140358;27;45318;-79
2022/01/13 10:22:53;;;;;;;;;33.00;23.67;;;;;4.83;75.65;103453.53;5140981;27;45270;-73
2022/01/13 10:25:29;;;;;;;;;25.00;20.00;;;;;4.92;75.83;103469.88;5139001;27;46330;-75
2022/01/13 10:27:56;;;;;;;;;30.67;24.67;;;;;4.90;75.98;103474.06;5140260;27;45309;-77
2022/01/13 10:30:25;;;;;;;;;30.00;23.33;;;;;4.99;75.96;103468.63;5140419;27;45424;-76
2022/01/13 10:32:52;;;;;;;;;32.75;28.00;;;;;4.99;75.76;103460.78;5140298;27;45241;-75
2022/01/13 10:35:20;;;;;;;;;36.33;31.67;;;;;5.08;75.76;103465.00;5132228;27;45360;-77
2022/01/13 10:37:56;;;;;;;;;39.33;33.33;;;;;5.00;75.70;103446.94;5139917;27;45492;-75
2022/01/13 10:40:26;;;;;;;;;30.67;27.33;;;;;5.13;74.75;103471.47;5140186;27;45477;-77
2022/01/13 10:45:47;;;;;;;;;24.50;21.25;;;;;5.11;75.78;103469.53;5132061;27;45375;-75
2022/01/13 10:48:17;;;;;;;;;29.00;27.00;;;;;5.08;75.25;103471.91;5139218;27;45477;-74
2022/01/13 10:50:46;;;;;;;;;28.33;25.67;;;;;5.08;75.08;103467.59;5139921;27;45220;-75
2022/01/13 10:53:20;;;;;;;;;30.67;28.67;;;;;5.05;75.08;103470.00;5139867;27;45245;-75
2022/01/13 10:55:52;;;;;;;;;29.33;26.00;;;;;5.04;75.45;103462.06;5139463;27;47492;-76
2022/01/13 10:58:23;;;;;;;;;36.00;28.00;;;;;5.01;75.53;103454.88;5120263;27;45777;-77
2022/01/13 11:00:50;;;;;;;;;40.00;37.00;;;;;4.94;75.74;103443.88;5140051;27;45508;-77
2022/01/13 11:03:19;;;;;;;;;30.67;30.67;;;;;5.09;75.38;103466.81;5139451;27;45963;-76
2022/01/13 11:05:56;;;;;;;;;40.00;31.33;;;;;5.05;75.40;103466.47;5139578;27;45269;-77
2022/01/13 11:08:39;;;;;;;;;24.33;20.67;;;;;5.07;75.03;103460.56;5139138;27;45766;-77
2022/01/13 11:11:05;;;;;;;;;30.00;27.67;;;;;5.01;74.86;103451.34;5120634;27;45226;-76
2022/01/13 11:13:36;;;;;;;;;29.67;28.00;;;;;5.13;75.06;103442.72;5139672;27;45460;-77
2022/01/13 11:16:01;;;;;;;;;34.33;28.33;;;;;5.13;75.01;103431.38;5120421;27;45557;-74
2022/01/13 11:18:30;;;;;;;;;26.33;25.67;;;;;5.08;74.69;103422.28;5140056;27;45518;-78
2022/01/13 11:20:57;;;;;;;;;30.00;30.00;;;;;5.08;74.76;103424.88;5120664;27;45378;-79
2022/01/13 11:23:24;;;;;;;;;36.33;30.67;;;;;5.15;74.59;103432.38;5137880;27;45431;-75
2022/01/13 11:25:52;;;;;;;;;31.00;27.67;;;;;5.18;74.47;103429.06;5120122;27;47268;-77
2022/01/13 11:28:20;;;;;;;;;35.67;33.00;;;;;5.31;74.39;103445.78;5138511;27;45454;-77
2022/01/13 11:30:47;;;;;;;;;32.50;28.75;;;;;5.29;74.48;103442.13;5139053;27;45403;-77
2022/01/13 11:33:13;;;;;;;;;34.00;31.33;;;;;5.30;74.75;103445.63;5119521;27;45590;-76
2022/01/13 11:35:44;;;;;;;;;35.75;28.25;;;;;5.28;74.08;103428.94;5120009;27;46069;-76
2022/01/13 11:38:11;;;;;;;;;27.75;22.50;;;;;5.27;74.27;103427.13;5119803;27;45388;-78
2022/01/13 11:40:42;;;;;;;;;28.00;24.00;;;;;5.00;73.86;103379.00;5138838;27;45506;-78
2022/01/13 11:43:26;;;;;;;;;29.00;24.75;;;;;5.29;73.50;103431.66;5138329;27;45471;-77
2022/01/13 11:45:52;;;;;;;;;22.75;15.25;;;;;5.26;73.78;103415.75;5138833;27;45412;-80
2022/01/13 11:48:24;;;;;;;;;35.00;31.25;;;;;5.25;73.16;103399.97;5118792;27;45404;-77
2022/01/13 11:50:53;;;;;;;;;37.50;30.25;;;;;5.39;72.63;103408.00;5138508;27;45398;-78
2022/01/13 11:53:29;;;;;;;;;36.25;29.25;;;;;5.48;73.34;103412.06;5138171;27;45815;-76
2022/01/13 11:56:01;;;;;;;;;25.00;25.00;;;;;5.11;72.82;103376.38;5138568;27;45465;-79
2022/01/13 11:58:31;;;;;;;;;35.75;30.50;;;;;5.28;73.78;103382.81;5138621;27;45586;-79